Guarda-Mor, Brazil
Current Conditions -  °F | °C
As of 3:00 AM on Thursday 23 Oct 2014 (Local Time) from SBUL Reporting Station
Broken Clouds Broken Clouds  
Wind Chill: 72°   Ceiling: 10000
Heat Index: 72°   Visibility: 6mi
Dew Point: 61°   Wind: 14mph
Humidity: 69%   Direction: 60°ENE
Pressure: 30.09"   Gusts: NA
Location:  17.77°S, 47.1°W
Report Text: SBUL 230500Z 06012KT 9999 FEW040 BKN100 22/16 Q1019
Loading
Personal Weather Stations






























Interactive Weather Map
Tropical Storm Tracking
New forecast layout! Learn more

10-Day Weather Forecast

Advertisements
Track Severe Weather on mobile